Time;durP1;ratioP1;P1;durP2;ratioP2;P2;SDS_P1;SDS_P2;PMS_P1;PMS_P2;Temp;Humidity;BMP_temperature;BMP_pressure;BME280_temperature;BME280_humidity;BME280_pressure;Samples;Min_cycle;Max_cycle;Signal;HPM_P1;HPM_P2
2023/09/15 00:00:17;;;;;;;4.43;3.25;;;15.10;99.90;;;;;;4995190;28;20199;-78
2023/09/15 00:02:45;;;;;;;5.25;3.58;;;15.10;99.90;;;;;;5010033;28;20206;-77
2023/09/15 00:05:16;;;;;;;3.92;3.17;;;15.10;99.90;;;;;;5004041;28;20207;-78
2023/09/15 00:07:46;;;;;;;5.53;3.55;;;15.00;99.90;;;;;;4996197;28;20242;-77
2023/09/15 00:10:15;;;;;;;6.78;3.45;;;14.70;99.90;;;;;;4998379;28;20200;-78
2023/09/15 00:12:43;;;;;;;4.15;3.35;;;14.50;99.90;;;;;;4996254;28;20204;-78
2023/09/15 00:15:12;;;;;;;5.78;3.38;;;14.30;99.90;;;;;;5013416;28;20203;-78
2023/09/15 00:17:42;;;;;;;4.78;3.58;;;14.30;99.90;;;;;;4989801;28;20208;-78
2023/09/15 00:20:13;;;;;;;5.38;3.67;;;14.30;99.90;;;;;;4997543;28;20564;-78
2023/09/15 00:22:42;;;;;;;5.30;3.20;;;14.30;99.90;;;;;;4999028;28;20699;-78
2023/09/15 00:25:10;;;;;;;6.97;3.97;;;14.20;99.90;;;;;;4997468;28;20203;-77
2023/09/15 00:27:38;;;;;;;5.00;3.30;;;14.00;99.90;;;;;;4995224;28;20669;-78
2023/09/15 00:30:08;;;;;;;4.88;3.53;;;14.20;99.90;;;;;;4995452;28;20210;-77
2023/09/15 00:32:37;;;;;;;5.10;3.05;;;14.20;99.90;;;;;;5013756;28;20560;-78
2023/09/15 00:35:05;;;;;;;3.58;3.22;;;14.20;99.90;;;;;;4995392;28;20195;-78
2023/09/15 00:37:33;;;;;;;4.53;3.13;;;14.20;99.90;;;;;;4984885;28;20189;-78
2023/09/15 00:40:00;;;;;;;5.50;3.17;;;14.10;99.90;;;;;;4996278;28;20203;-78
2023/09/15 00:42:27;;;;;;;6.68;3.30;;;14.10;99.90;;;;;;4994212;28;20541;-78
2023/09/15 00:44:55;;;;;;;3.58;3.28;;;14.10;99.90;;;;;;4999171;28;20210;-77
2023/09/15 00:47:38;;;;;;;3.95;3.20;;;14.10;99.90;;;;;;4995034;28;20580;-78
2023/09/15 00:50:08;;;;;;;4.07;3.30;;;14.10;99.90;;;;;;4995651;28;20203;-78
2023/09/15 00:52:36;;;;;;;5.00;3.45;;;14.10;99.90;;;;;;4989476;28;20206;-78
2023/09/15 00:55:08;;;;;;;5.43;3.22;;;14.00;99.90;;;;;;5000197;28;20206;-78
2023/09/15 00:57:37;;;;;;;5.70;3.63;;;13.90;99.90;;;;;;4994939;28;20691;-78
2023/09/15 01:00:11;;;;;;;5.60;3.13;;;14.00;99.90;;;;;;5008212;28;20207;-78
2023/09/15 01:02:42;;;;;;;5.00;3.33;;;14.00;99.90;;;;;;5007632;28;20194;-78
2023/09/15 01:05:16;;;;;;;4.40;3.70;;;13.90;99.90;;;;;;5014211;28;20674;-78
2023/09/15 01:07:46;;;;;;;4.85;3.25;;;13.90;99.90;;;;;;5031234;28;20219;-78
2023/09/15 01:10:14;;;;;;;5.07;3.17;;;13.90;99.90;;;;;;5000710;28;20573;-78
2023/09/15 01:12:43;;;;;;;5.55;3.92;;;14.00;99.90;;;;;;5006970;28;20214;-78
2023/09/15 01:15:11;;;;;;;5.43;3.45;;;13.90;99.90;;;;;;5010000;28;20260;-78
2023/09/15 01:17:46;;;;;;;5.22;3.35;;;14.10;99.90;;;;;;5015144;28;20222;-78
2023/09/15 01:20:21;;;;;;;4.47;3.33;;;14.20;99.90;;;;;;5003895;28;20206;-77
2023/09/15 01:23:19;;;;;;;6.70;4.20;;;13.90;99.90;;;;;;5041045;28;20198;-78
2023/09/15 01:26:07;;;;;;;5.07;3.25;;;13.90;99.90;;;;;;5011711;28;20242;-77
2023/09/15 01:29:06;;;;;;;5.30;3.50;;;13.80;99.90;;;;;;5036141;28;20222;-78
2023/09/15 01:31:35;;;;;;;4.10;3.70;;;13.70;99.90;;;;;;5002289;28;20199;-77
2023/09/15 01:34:04;;;;;;;7.57;3.78;;;13.80;99.90;;;;;;5008803;28;20229;-78
2023/09/15 01:36:31;;;;;;;5.85;3.75;;;13.80;99.90;;;;;;5022138;28;20218;-77
2023/09/15 01:38:59;;;;;;;6.53;3.78;;;13.90;99.90;;;;;;5012822;28;20200;-78
2023/09/15 01:41:26;;;;;;;9.65;3.70;;;13.90;99.90;;;;;;5014664;28;20195;-78
2023/09/15 01:43:54;;;;;;;5.97;3.47;;;13.70;99.90;;;;;;5038949;28;20203;-78
2023/09/15 01:46:29;;;;;;;6.60;4.05;;;13.60;99.90;;;;;;5003565;28;20226;-78
2023/09/15 01:48:59;;;;;;;4.05;3.15;;;13.40;99.90;;;;;;5035925;28;20195;-78
2023/09/15 01:51:28;;;;;;;3.97;3.47;;;13.50;99.90;;;;;;5013800;28;20199;-78
2023/09/15 01:53:55;;;;;;;4.95;3.38;;;13.60;99.90;;;;;;5017077;28;20210;-78
2023/09/15 01:56:27;;;;;;;5.72;3.38;;;13.70;99.90;;;;;;5013625;28;20230;-77
2023/09/15 01:58:54;;;;;;;5.18;3.65;;;13.80;99.90;;;;;;5003808;28;20200;-78
2023/09/15 02:01:22;;;;;;;6.05;3.35;;;13.90;99.90;;;;;;5016118;28;20210;-78
2023/09/15 02:03:49;;;;;;;8.10;3.63;;;13.90;99.90;;;;;;5011921;28;20199;-78
2023/09/15 02:06:18;;;;;;;3.97;3.28;;;13.90;99.90;;;;;;5013009;28;20242;-78
2023/09/15 02:08:46;;;;;;;5.45;3.60;;;13.90;99.90;;;;;;5016993;28;20203;-77
2023/09/15 02:11:15;;;;;;;6.35;3.85;;;13.90;99.90;;;;;;5035857;28;20199;-78
2023/09/15 02:13:43;;;;;;;4.43;3.38;;;13.90;99.90;;;;;;5016496;28;20207;-78
2023/09/15 02:16:11;;;;;;;7.72;3.80;;;13.90;99.90;;;;;;5014644;28;20223;-78
2023/09/15 02:18:41;;;;;;;8.18;3.60;;;13.90;99.90;;;;;;5017435;28;20202;-78
2023/09/15 02:21:24;;;;;;;5.45;3.55;;;13.80;99.90;;;;;;5035380;28;20660;-77
2023/09/15 02:23:51;;;;;;;5.85;3.60;;;13.80;99.90;;;;;;5017218;28;20199;-78
2023/09/15 02:26:21;;;;;;;4.43;3.88;;;13.80;99.90;;;;;;5015324;28;20226;-77
2023/09/15 02:28:48;;;;;;;7.07;3.72;;;13.90;99.90;;;;;;5011573;28;20672;-78
2023/09/15 02:31:15;;;;;;;7.15;3.67;;;13.90;99.90;;;;;;5014976;28;20195;-78
2023/09/15 02:33:45;;;;;;;4.63;3.50;;;14.00;99.90;;;;;;5018066;28;20202;-78
2023/09/15 02:36:13;;;;;;;5.60;3.50;;;14.00;99.90;;;;;;5009850;28;20224;-78
2023/09/15 02:38:42;;;;;;;6.30;3.45;;;14.00;99.90;;;;;;5012550;28;20215;-78
2023/09/15 02:41:09;;;;;;;3.83;3.45;;;13.80;99.90;;;;;;5013087;28;20234;-77
2023/09/15 02:43:37;;;;;;;4.03;3.25;;;13.70;99.90;;;;;;5016756;28;20206;-78
2023/09/15 02:46:04;;;;;;;4.45;3.60;;;13.70;99.90;;;;;;5017657;28;20223;-78
2023/09/15 02:48:33;;;;;;;5.30;3.25;;;13.60;99.90;;;;;;5014162;28;20218;-78
2023/09/15 02:51:00;;;;;;;8.65;3.65;;;13.40;99.90;;;;;;5011689;28;20558;-78
2023/09/15 02:53:28;;;;;;;6.82;3.85;;;13.30;99.90;;;;;;5016080;28;20191;-78
2023/09/15 02:55:59;;;;;;;4.70;3.47;;;13.10;99.90;;;;;;5025049;28;20228;-78
2023/09/15 02:58:28;;;;;;;6.90;3.47;;;13.30;99.90;;;;;;5047488;28;20206;-78
2023/09/15 03:00:55;;;;;;;5.82;3.60;;;13.30;99.90;;;;;;5011224;28;20206;-78
2023/09/15 03:03:24;;;;;;;5.95;3.88;;;13.30;99.90;;;;;;5018986;28;20210;-78
2023/09/15 03:06:02;;;;;;;8.98;4.00;;;13.40;99.90;;;;;;5012351;28;20677;-78
2023/09/15 03:08:31;;;;;;;5.38;3.15;;;13.20;99.90;;;;;;5010103;28;20211;-78
2023/09/15 03:11:00;;;;;;;5.18;3.33;;;13.00;99.90;;;;;;5016539;28;20210;-78
2023/09/15 03:13:27;;;;;;;6.68;2.92;;;13.10;99.90;;;;;;5016261;28;20207;-78
2023/09/15 03:15:55;;;;;;;7.57;3.42;;;13.10;99.90;;;;;;5016232;28;20227;-78
2023/09/15 03:18:22;;;;;;;4.05;3.33;;;13.00;99.90;;;;;;5016581;28;20195;-78
2023/09/15 03:20:50;;;;;;;5.07;3.03;;;13.00;99.90;;;;;;5010494;28;20222;-78
2023/09/15 03:23:17;;;;;;;5.10;3.65;;;13.10;99.90;;;;;;5016596;28;20203;-78
2023/09/15 03:25:45;;;;;;;4.38;3.72;;;13.20;99.90;;;;;;5011187;28;20223;-78
2023/09/15 03:28:14;;;;;;;5.93;3.40;;;13.20;99.90;;;;;;5016452;28;20680;-78
2023/09/15 03:30:41;;;;;;;4.32;3.60;;;13.20;99.90;;;;;;5033777;28;20195;-78
2023/09/15 03:33:09;;;;;;;4.65;3.53;;;13.20;99.90;;;;;;5018911;28;20210;-76
2023/09/15 03:35:36;;;;;;;5.90;3.78;;;13.30;99.90;;;;;;5017949;28;20218;-78
2023/09/15 03:38:04;;;;;;;4.78;3.20;;;13.40;99.90;;;;;;5007868;28;20210;-78
2023/09/15 03:40:32;;;;;;;5.47;3.90;;;13.40;99.90;;;;;;5007378;28;20210;-78
2023/09/15 03:42:59;;;;;;;6.65;3.88;;;13.30;99.90;;;;;;5013342;28;20214;-78
2023/09/15 03:45:29;;;;;;;5.80;3.60;;;13.30;99.90;;;;;;5015013;28;20220;-78
2023/09/15 03:47:57;;;;;;;4.53;3.55;;;13.20;99.90;;;;;;5012197;28;20727;-78
2023/09/15 03:50:26;;;;;;;4.60;3.08;;;13.20;99.90;;;;;;5011104;28;20196;-78
2023/09/15 03:52:54;;;;;;;5.07;3.33;;;13.30;99.90;;;;;;5013619;28;20704;-78
2023/09/15 03:55:21;;;;;;;5.97;3.20;;;13.30;99.90;;;;;;5014742;28;20594;-78
2023/09/15 03:57:49;;;;;;;5.18;3.58;;;13.30;99.90;;;;;;5013186;28;20206;-78
2023/09/15 04:00:19;;;;;;;6.65;3.50;;;13.20;99.90;;;;;;5013276;28;20210;-78
2023/09/15 04:02:48;;;;;;;5.50;3.78;;;13.00;99.90;;;;;;5016989;28;20199;-78
2023/09/15 04:05:15;;;;;;;5.28;3.45;;;13.00;99.90;;;;;;5015844;28;20195;-78
2023/09/15 04:07:43;;;;;;;5.05;3.60;;;12.80;99.90;;;;;;5015195;28;20210;-78
2023/09/15 04:10:11;;;;;;;4.00;3.03;;;12.70;99.90;;;;;;5016481;28;20203;-76
2023/09/15 04:12:38;;;;;;;3.58;3.28;;;12.50;99.90;;;;;;5016155;28;20195;-78
2023/09/15 04:15:07;;;;;;;5.18;3.63;;;12.80;99.90;;;;;;5015423;28;20208;-77
2023/09/15 04:17:34;;;;;;;6.30;3.70;;;12.70;99.90;;;;;;5011294;28;20206;-78
2023/09/15 04:20:08;;;;;;;6.68;3.78;;;12.60;99.90;;;;;;5015018;28;20195;-78
2023/09/15 04:22:36;;;;;;;5.15;3.15;;;12.70;99.90;;;;;;5021304;28;20191;-78
2023/09/15 04:25:05;;;;;;;4.07;3.15;;;12.60;99.90;;;;;;5015691;28;20214;-78
2023/09/15 04:27:33;;;;;;;4.43;3.20;;;12.40;99.90;;;;;;5014831;28;20211;-78
2023/09/15 04:30:01;;;;;;;5.05;3.40;;;12.40;99.90;;;;;;5016332;28;20684;-78
2023/09/15 04:32:40;;;;;;;4.53;3.65;;;12.30;99.90;;;;;;5008655;28;20202;-78
2023/09/15 04:35:09;;;;;;;5.65;3.42;;;12.40;99.90;;;;;;5016047;28;20203;-78
2023/09/15 04:37:37;;;;;;;7.75;3.63;;;12.30;99.90;;;;;;5015425;28;20191;-78
2023/09/15 04:40:06;;;;;;;4.97;3.55;;;12.30;99.90;;;;;;5015120;28;20199;-78
2023/09/15 04:42:34;;;;;;;4.43;3.42;;;12.50;99.90;;;;;;5014816;28;20199;-78
2023/09/15 04:45:02;;;;;;;5.57;3.45;;;12.40;99.90;;;;;;5014738;28;20203;-78
2023/09/15 04:47:32;;;;;;;6.22;3.63;;;12.50;99.90;;;;;;5023490;28;20191;-78
2023/09/15 04:50:01;;;;;;;4.88;3.33;;;12.50;99.90;;;;;;5009587;28;20574;-78
2023/09/15 04:52:30;;;;;;;4.93;3.13;;;12.40;99.90;;;;;;5009660;28;20210;-77
2023/09/15 04:54:58;;;;;;;7.40;3.40;;;12.40;99.90;;;;;;5008404;28;20204;-78
2023/09/15 04:57:25;;;;;;;5.03;3.35;;;12.40;99.90;;;;;;5010151;28;20203;-77
2023/09/15 04:59:54;;;;;;;6.78;3.75;;;12.40;99.90;;;;;;5011353;28;20203;-77
2023/09/15 05:02:23;;;;;;;4.55;3.67;;;12.50;99.90;;;;;;5007427;28;20207;-78
2023/09/15 05:04:52;;;;;;;5.22;3.47;;;12.60;99.90;;;;;;5027596;28;20680;-78
2023/09/15 05:07:21;;;;;;;5.13;4.00;;;12.50;99.90;;;;;;5021817;28;20223;-77
2023/09/15 05:09:50;;;;;;;6.97;3.70;;;12.40;99.90;;;;;;5009134;28;20225;-78
2023/09/15 05:12:18;;;;;;;4.88;3.40;;;12.40;99.90;;;;;;5026805;28;20207;-79
2023/09/15 05:14:46;;;;;;;5.15;3.78;;;12.50;99.90;;;;;;5012983;28;20201;-77
2023/09/15 05:17:44;;;;;;;5.78;3.63;;;12.50;99.90;;;;;;5008595;28;20224;-79
2023/09/15 05:20:12;;;;;;;5.82;3.42;;;12.50;99.90;;;;;;5013527;28;20195;-78
2023/09/15 05:22:40;;;;;;;5.93;4.00;;;12.40;99.90;;;;;;5012914;28;20287;-79
2023/09/15 05:25:09;;;;;;;6.70;3.60;;;12.40;99.90;;;;;;5031468;28;20204;-78
2023/09/15 05:27:37;;;;;;;6.47;4.38;;;12.40;99.90;;;;;;5026766;28;20195;-78
2023/09/15 05:30:05;;;;;;;7.55;3.67;;;12.50;99.90;;;;;;5014551;28;20215;-78
2023/09/15 05:32:36;;;;;;;6.60;3.35;;;12.70;99.90;;;;;;5017246;28;20194;-78
2023/09/15 05:35:04;;;;;;;6.45;3.67;;;12.60;99.90;;;;;;5033557;28;20210;-77
2023/09/15 05:37:31;;;;;;;5.18;3.53;;;12.60;99.90;;;;;;5007612;28;20191;-77
2023/09/15 05:39:59;;;;;;;6.57;4.10;;;12.60;99.90;;;;;;5017410;28;20214;-77
2023/09/15 05:42:28;;;;;;;5.80;3.67;;;12.60;99.90;;;;;;5016135;28;20195;-77
2023/09/15 05:44:55;;;;;;;5.50;4.32;;;12.70;99.90;;;;;;5010802;28;20668;-77
2023/09/15 05:47:23;;;;;;;7.25;4.40;;;12.70;99.90;;;;;;5017180;28;20226;-77
2023/09/15 05:49:50;;;;;;;8.18;4.10;;;12.70;99.90;;;;;;5009005;28;20211;-77
2023/09/15 05:52:18;;;;;;;6.05;3.83;;;12.70;99.90;;;;;;5007202;28;20203;-78
2023/09/15 05:54:47;;;;;;;6.43;3.95;;;12.70;99.90;;;;;;5022578;28;20222;-77
2023/09/15 05:57:14;;;;;;;6.00;4.18;;;12.80;99.90;;;;;;5016580;28;20218;-77
2023/09/15 05:59:43;;;;;;;6.20;3.95;;;12.90;99.90;;;;;;5009427;28;20196;-77
2023/09/15 06:02:18;;;;;;;7.65;4.05;;;13.00;99.90;;;;;;5004347;28;20243;-77
2023/09/15 06:04:46;;;;;;;10.32;4.22;;;13.20;99.90;;;;;;5013785;28;20196;-77
2023/09/15 06:07:13;;;;;;;7.55;4.10;;;13.20;99.90;;;;;;5015755;28;20226;-77
2023/09/15 06:09:40;;;;;;;6.03;4.38;;;13.30;99.90;;;;;;5008941;28;20699;-77
2023/09/15 06:12:08;;;;;;;6.78;4.40;;;13.40;99.90;;;;;;5015088;28;20543;-77
2023/09/15 06:14:40;;;;;;;6.53;4.28;;;13.50;99.90;;;;;;5016266;28;20282;-77
2023/09/15 06:17:10;;;;;;;9.65;4.25;;;13.60;99.90;;;;;;5004687;28;20228;-77
2023/09/15 06:19:37;;;;;;;6.63;4.68;;;13.70;99.90;;;;;;5028217;28;20203;-77
2023/09/15 06:22:05;;;;;;;7.22;4.50;;;13.80;99.90;;;;;;5010382;28;20204;-77
2023/09/15 06:24:32;;;;;;;8.68;6.00;;;13.80;99.90;;;;;;5014798;28;20211;-78
2023/09/15 06:26:59;;;;;;;9.98;7.65;;;13.90;99.90;;;;;;5015346;28;20226;-78
2023/09/15 06:29:27;;;;;;;8.13;4.40;;;13.90;99.90;;;;;;5010191;28;20199;-77
2023/09/15 06:31:54;;;;;;;5.22;3.67;;;13.90;99.90;;;;;;5036363;28;20266;-77
2023/09/15 06:34:47;;;;;;;6.15;4.68;;;14.00;99.90;;;;;;5015025;28;20207;-77
2023/09/15 06:37:14;;;;;;;8.07;4.47;;;14.00;99.90;;;;;;5013526;28;20223;-77
2023/09/15 06:39:42;;;;;;;10.27;4.93;;;14.10;99.90;;;;;;5018615;28;20668;-80
2023/09/15 06:42:22;;;;;;;7.50;4.32;;;14.20;99.90;;;;;;5007739;28;20204;-77
2023/09/15 06:44:50;;;;;;;8.15;4.38;;;14.30;99.90;;;;;;5012305;28;20195;-77
2023/09/15 06:47:17;;;;;;;5.53;4.18;;;14.40;99.90;;;;;;5013810;28;20219;-77
2023/09/15 06:49:44;;;;;;;7.93;4.65;;;14.30;99.90;;;;;;5004996;28;20222;-78
2023/09/15 06:52:13;;;;;;;5.70;4.55;;;14.40;99.90;;;;;;5031100;28;20644;-78
2023/09/15 06:54:41;;;;;;;6.47;4.47;;;14.50;99.90;;;;;;5015675;28;20555;-78
2023/09/15 06:57:08;;;;;;;6.03;4.55;;;14.60;99.90;;;;;;5015511;28;20242;-77
2023/09/15 06:59:35;;;;;;;8.57;4.20;;;14.60;99.90;;;;;;5016857;28;20290;-77
2023/09/15 07:02:03;;;;;;;6.63;4.07;;;14.80;99.90;;;;;;5033378;28;20202;-77
2023/09/15 07:04:30;;;;;;;5.95;4.32;;;14.90;99.90;;;;;;5013231;28;20214;-77
2023/09/15 07:06:58;;;;;;;5.43;4.22;;;15.20;99.90;;;;;;5012522;28;20231;-77
2023/09/15 07:09:26;;;;;;;6.63;3.95;;;15.30;99.90;;;;;;5012397;28;20211;-77
2023/09/15 07:11:54;;;;;;;6.55;4.18;;;15.30;99.90;;;;;;5032158;28;20537;-78
2023/09/15 07:14:21;;;;;;;5.75;3.88;;;15.30;99.90;;;;;;5011632;28;20204;-78
2023/09/15 07:16:48;;;;;;;7.95;4.20;;;15.40;99.90;;;;;;5032387;28;20226;-77
2023/09/15 07:19:16;;;;;;;7.72;5.07;;;15.40;99.90;;;;;;5007058;28;20204;-78
2023/09/15 07:21:44;;;;;;;9.70;4.70;;;15.40;99.90;;;;;;5024031;28;20199;-77
2023/09/15 07:24:12;;;;;;;6.18;4.25;;;15.40;99.90;;;;;;5007478;28;20203;-76
2023/09/15 07:26:41;;;;;;;7.85;4.70;;;15.60;99.90;;;;;;5008953;28;20224;-77
2023/09/15 07:29:08;;;;;;;6.13;3.83;;;15.50;99.90;;;;;;5006725;28;20645;-75
2023/09/15 07:31:37;;;;;;;7.47;4.72;;;16.30;99.90;;;;;;5008391;28;20267;-75
2023/09/15 07:34:29;;;;;;;7.00;4.00;;;16.70;99.90;;;;;;5012667;28;20206;-75
2023/09/15 07:36:56;;;;;;;5.45;3.45;;;17.10;99.90;;;;;;5015180;28;20219;-75
2023/09/15 07:39:24;;;;;;;6.05;3.67;;;17.40;99.90;;;;;;5022966;28;20191;-75
2023/09/15 07:41:52;;;;;;;6.43;3.85;;;17.40;99.90;;;;;;5011775;28;20206;-75
2023/09/15 07:44:20;;;;;;;6.88;4.13;;;17.30;99.90;;;;;;5028538;28;20225;-75
2023/09/15 07:46:47;;;;;;;13.77;4.50;;;17.50;99.90;;;;;;5014870;28;20223;-76
2023/09/15 07:49:15;;;;;;;6.50;4.20;;;17.60;99.90;;;;;;5031481;28;20203;-75
2023/09/15 07:51:43;;;;;;;5.43;3.80;;;17.80;99.90;;;;;;5012492;28;20265;-75
2023/09/15 07:54:10;;;;;;;9.38;3.83;;;17.80;99.90;;;;;;5008419;28;20210;-76
2023/09/15 07:56:37;;;;;;;7.40;4.00;;;18.00;99.90;;;;;;5029350;28;20219;-77
2023/09/15 07:59:07;;;;;;;6.70;4.68;;;18.00;99.90;;;;;;5004660;28;20210;-76
2023/09/15 08:01:35;;;;;;;7.30;4.53;;;17.90;99.90;;;;;;5010118;28;20199;-77
2023/09/15 08:04:02;;;;;;;7.15;3.97;;;17.90;99.90;;;;;;5002100;28;20222;-76
2023/09/15 08:06:30;;;;;;;8.40;4.43;;;17.70;99.90;;;;;;5028739;28;20231;-76
2023/09/15 08:08:58;;;;;;;7.55;4.40;;;17.90;99.90;;;;;;5028365;28;20190;-76
2023/09/15 08:11:25;;;;;;;8.73;5.15;;;18.10;99.90;;;;;;5020890;28;20207;-76
2023/09/15 08:13:52;;;;;;;5.40;3.95;;;18.20;99.90;;;;;;5016054;28;20199;-78
2023/09/15 08:16:21;;;;;;;7.55;4.80;;;18.20;99.90;;;;;;5013644;28;20225;-77
2023/09/15 08:18:49;;;;;;;8.10;5.10;;;17.90;99.90;;;;;;5005591;28;20215;-78
2023/09/15 08:21:16;;;;;;;10.27;6.65;;;17.80;99.90;;;;;;5016108;28;20210;-77
2023/09/15 08:23:44;;;;;;;9.25;6.60;;;17.60;99.90;;;;;;5017675;28;20199;-78
2023/09/15 08:26:11;;;;;;;6.43;4.70;;;17.60;99.90;;;;;;5015715;28;20226;-78
2023/09/15 08:28:39;;;;;;;9.93;4.55;;;17.70;99.90;;;;;;5012978;28;20570;-78
2023/09/15 08:31:06;;;;;;;6.25;4.30;;;17.80;99.90;;;;;;5005718;28;20218;-78
2023/09/15 08:33:35;;;;;;;5.45;4.50;;;17.70;99.90;;;;;;5013429;28;20199;-78
2023/09/15 08:36:04;;;;;;;6.22;3.85;;;17.80;99.90;;;;;;5013836;28;20738;-78
2023/09/15 08:38:32;;;;;;;6.97;4.53;;;17.80;99.90;;;;;;5013374;28;20203;-77
2023/09/15 08:41:06;;;;;;;5.15;3.50;;;17.90;99.90;;;;;;5032009;28;20675;-78
2023/09/15 08:43:34;;;;;;;6.55;4.28;;;17.90;99.90;;;;;;5012842;28;20203;-77
2023/09/15 08:46:05;;;;;;;7.88;3.70;;;18.00;99.90;;;;;;5033226;28;20582;-78
2023/09/15 08:48:41;;;;;;;11.25;4.13;;;18.00;99.90;;;;;;5019420;28;20688;-78
2023/09/15 08:51:09;;;;;;;5.63;3.50;;;18.10;99.90;;;;;;5031095;28;20205;-78
2023/09/15 08:53:37;;;;;;;5.07;4.22;;;18.00;99.90;;;;;;5036232;28;20198;-77
2023/09/15 08:56:05;;;;;;;6.80;3.90;;;18.10;99.90;;;;;;5022001;28;20230;-78
2023/09/15 08:58:34;;;;;;;7.13;3.63;;;18.10;99.90;;;;;;5020302;28;20203;-78
2023/09/15 09:01:07;;;;;;;6.07;3.42;;;18.10;99.90;;;;;;5018452;28;20198;-78
2023/09/15 09:03:36;;;;;;;5.22;3.40;;;18.10;99.90;;;;;;5021179;28;20206;-78
2023/09/15 09:06:09;;;;;;;7.35;3.63;;;18.20;99.90;;;;;;5044075;28;20223;-78
2023/09/15 09:08:40;;;;;;;7.55;2.85;;;18.30;99.90;;;;;;5013003;28;20206;-78
2023/09/15 09:11:07;;;;;;;5.18;3.25;;;18.30;99.90;;;;;;5013495;28;20217;-78
2023/09/15 09:13:35;;;;;;;6.28;3.17;;;18.40;99.90;;;;;;5009032;28;20203;-79
2023/09/15 09:16:05;;;;;;;4.43;3.38;;;18.80;99.90;;;;;;5007608;28;20583;-79
2023/09/15 09:18:34;;;;;;;4.78;3.15;;;19.00;99.90;;;;;;5014836;28;20209;-79
2023/09/15 09:21:05;;;;;;;7.53;6.35;;;19.20;99.90;;;;;;5014355;28;20202;-79
2023/09/15 09:23:32;;;;;;;6.63;3.45;;;19.30;99.90;;;;;;5024128;28;20538;-79
2023/09/15 09:26:00;;;;;;;4.25;2.85;;;19.10;99.90;;;;;;5012770;28;20257;-79
2023/09/15 09:28:28;;;;;;;7.70;3.50;;;19.00;99.90;;;;;;5010449;28;20203;-78
2023/09/15 09:30:56;;;;;;;4.50;2.85;;;19.00;99.90;;;;;;5006937;28;20211;-79
2023/09/15 09:33:24;;;;;;;4.57;3.17;;;19.20;99.90;;;;;;5012599;28;20653;-79
2023/09/15 09:36:11;;;;;;;3.08;2.40;;;19.20;99.90;;;;;;5024691;28;20708;-79
2023/09/15 09:38:39;;;;;;;5.10;2.95;;;19.20;99.90;;;;;;5012210;28;20203;-79
2023/09/15 09:41:06;;;;;;;23.55;16.83;;;19.20;99.90;;;;;;5009871;28;20199;-79
2023/09/15 09:43:37;;;;;;;12.15;7.35;;;19.50;99.90;;;;;;5006705;28;20206;-79
2023/09/15 09:46:05;;;;;;;19.88;14.77;;;19.60;99.90;;;;;;5013010;28;20215;-79
2023/09/15 09:48:34;;;;;;;17.08;11.80;;;19.70;99.90;;;;;;5026308;28;20199;-79
2023/09/15 09:51:03;;;;;;;10.82;7.97;;;19.90;99.90;;;;;;5020199;28;20226;-78
2023/09/15 09:53:34;;;;;;;6.22;3.40;;;19.80;99.90;;;;;;5009756;28;20204;-78
2023/09/15 09:56:02;;;;;;;5.88;3.50;;;19.80;99.90;;;;;;5014127;28;20234;-80
2023/09/15 09:58:29;;;;;;;21.25;11.80;;;19.70;99.90;;;;;;5003811;28;20214;-79
2023/09/15 10:00:56;;;;;;;33.67;20.15;;;20.00;99.90;;;;;;5027982;28;20210;-79
2023/09/15 10:03:24;;;;;;;21.52;13.05;;;20.00;99.90;;;;;;5011011;28;20200;-78
2023/09/15 10:05:52;;;;;;;5.57;3.28;;;20.10;99.90;;;;;;5012066;28;20592;-79
2023/09/15 10:08:20;;;;;;;8.77;5.70;;;20.10;99.90;;;;;;5013895;28;20210;-79
2023/09/15 10:10:51;;;;;;;6.95;3.58;;;20.10;99.90;;;;;;5013747;28;20211;-79
2023/09/15 10:13:19;;;;;;;6.50;3.13;;;20.30;99.90;;;;;;5017338;28;20206;-78
2023/09/15 10:15:48;;;;;;;7.78;3.85;;;20.10;99.90;;;;;;5016201;28;20227;-78
2023/09/15 10:18:19;;;;;;;5.15;3.70;;;20.30;99.90;;;;;;5014299;28;20211;-78
2023/09/15 10:20:50;;;;;;;6.90;3.28;;;20.30;99.90;;;;;;5014005;28;20708;-78
2023/09/15 10:23:18;;;;;;;7.80;3.40;;;20.20;99.90;;;;;;5017073;28;20213;-79
2023/09/15 10:25:52;;;;;;;5.20;3.72;;;20.40;99.90;;;;;;5017295;28;20688;-78
2023/09/15 10:28:20;;;;;;;6.03;3.72;;;20.20;99.90;;;;;;5016994;28;20206;-79
2023/09/15 10:30:48;;;;;;;3.65;3.00;;;20.30;99.90;;;;;;5015874;28;20211;-79
2023/09/15 10:33:22;;;;;;;6.60;3.33;;;20.50;99.90;;;;;;5039657;28;20211;-79
2023/09/15 10:35:49;;;;;;;5.25;2.97;;;20.70;99.90;;;;;;5034936;28;20211;-79
2023/09/15 10:38:27;;;;;;;3.17;2.72;;;20.60;99.90;;;;;;5013036;28;20202;-79
2023/09/15 10:40:58;;;;;;;6.03;3.03;;;20.80;99.90;;;;;;5035533;28;20191;-79
2023/09/15 10:43:25;;;;;;;3.22;2.80;;;21.00;99.90;;;;;;5021010;28;20215;-79
2023/09/15 10:45:57;;;;;;;3.42;2.45;;;20.80;99.90;;;;;;5017338;28;20226;-78
2023/09/15 10:48:46;;;;;;;;;;;;;;;;;;;;;
2023/09/15 10:51:16;;;;;;;5.88;3.67;;;21.00;99.90;;;;;;5016989;28;20590;-78
2023/09/15 10:53:44;;;;;;;3.78;3.17;;;20.80;99.90;;;;;;5014322;28;21164;-78
2023/09/15 10:56:17;;;;;;;5.57;3.40;;;21.10;99.90;;;;;;5030819;28;20211;-80
2023/09/15 10:58:47;;;;;;;8.30;3.67;;;21.20;99.90;;;;;;5013842;28;20195;-79
2023/09/15 11:01:15;;;;;;;6.38;3.80;;;21.20;99.90;;;;;;5017311;28;20210;-79
2023/09/15 11:03:43;;;;;;;6.95;2.60;;;21.10;99.90;;;;;;5023546;28;20209;-79
2023/09/15 11:06:12;;;;;;;4.35;2.72;;;21.20;99.90;;;;;;4998896;28;20235;-79
2023/09/15 11:08:40;;;;;;;6.55;2.92;;;21.40;99.90;;;;;;5005715;28;20215;-79
2023/09/15 11:11:09;;;;;;;5.25;2.63;;;21.70;99.90;;;;;;5010578;28;20209;-79
2023/09/15 11:14:00;;;;;;;5.20;3.10;;;21.70;99.90;;;;;;5036851;28;20195;-79
2023/09/15 11:16:29;;;;;;;4.68;2.30;;;21.80;99.90;;;;;;5027431;28;20215;-79
2023/09/15 11:18:59;;;;;;;3.10;2.78;;;22.10;99.30;;;;;;5010478;28;20659;-79
2023/09/15 11:21:28;;;;;;;5.80;2.47;;;22.00;98.40;;;;;;5017071;28;20206;-78
2023/09/15 11:23:56;;;;;;;3.65;2.22;;;22.20;98.80;;;;;;5007256;28;20306;-79
2023/09/15 11:26:25;;;;;;;4.80;2.20;;;22.30;99.40;;;;;;5010032;28;20564;-78
2023/09/15 11:29:00;;;;;;;4.38;2.10;;;22.20;98.70;;;;;;5014824;28;20207;-78
2023/09/15 11:31:31;;;;;;;4.35;2.45;;;22.10;98.60;;;;;;5025935;28;20216;-78
2023/09/15 11:33:59;;;;;;;3.78;2.45;;;22.20;98.00;;;;;;5021251;28;20209;-78
2023/09/15 11:36:27;;;;;;;2.55;2.28;;;22.50;96.50;;;;;;5009668;28;20231;-78
2023/09/15 11:38:57;;;;;;;2.60;2.10;;;22.40;95.40;;;;;;5004547;28;20260;-78
2023/09/15 11:41:30;;;;;;;4.03;2.53;;;22.80;95.80;;;;;;5015309;28;20657;-78
2023/09/15 11:43:59;;;;;;;4.18;2.42;;;23.00;94.20;;;;;;5016211;28;20203;-78
2023/09/15 11:46:46;;;;;;;2.88;2.10;;;23.20;94.40;;;;;;5030757;28;20218;-78
2023/09/15 11:49:15;;;;;;;2.33;2.13;;;23.10;95.10;;;;;;5020355;28;20195;-78
2023/09/15 11:52:01;;;;;;;3.35;2.38;;;22.80;94.40;;;;;;5015576;28;20195;-77
2023/09/15 11:54:28;;;;;;;5.43;2.42;;;23.20;93.80;;;;;;5029897;28;20195;-78
2023/09/15 11:56:56;;;;;;;2.72;1.92;;;23.50;94.30;;;;;;5014047;28;21764;-79
2023/09/15 11:59:25;;;;;;;5.25;3.25;;;23.40;92.50;;;;;;5008713;28;20553;-78
2023/09/15 12:01:54;;;;;;;3.35;2.08;;;23.50;92.60;;;;;;5033797;28;20183;-78
2023/09/15 12:04:25;;;;;;;4.85;2.50;;;23.30;93.10;;;;;;5011680;28;20208;-77
2023/09/15 12:06:52;;;;;;;3.40;2.70;;;23.50;93.20;;;;;;5006046;28;20227;-78
2023/09/15 12:09:20;;;;;;;2.47;2.28;;;23.10;93.10;;;;;;5014132;28;20198;-78
2023/09/15 12:11:47;;;;;;;2.88;2.17;;;23.30;93.60;;;;;;5014256;28;20203;-77
2023/09/15 12:14:15;;;;;;;2.72;2.00;;;23.80;92.60;;;;;;5027520;28;20184;-78
2023/09/15 12:16:59;;;;;;;2.65;2.33;;;23.90;92.80;;;;;;5020468;28;20559;-80
2023/09/15 12:19:29;;;;;;;3.58;2.28;;;24.00;92.30;;;;;;5016785;28;20554;-81
2023/09/15 12:21:59;;;;;;;3.75;1.90;;;24.30;90.80;;;;;;5035165;28;20224;-80
2023/09/15 12:24:28;;;;;;;5.75;2.40;;;24.30;91.20;;;;;;5023246;28;20580;-78
2023/09/15 12:26:59;;;;;;;2.90;2.20;;;24.10;90.50;;;;;;5022460;28;20218;-76
2023/09/15 12:29:27;;;;;;;2.97;2.15;;;24.30;89.80;;;;;;5009807;28;20210;-77
2023/09/15 12:31:56;;;;;;;2.55;1.67;;;24.60;90.40;;;;;;5022595;28;20209;-77
2023/09/15 12:34:27;;;;;;;3.40;1.70;;;25.00;88.80;;;;;;5012171;28;20207;-77
2023/09/15 12:36:55;;;;;;;3.20;2.30;;;25.30;87.10;;;;;;5016776;28;20227;-78
2023/09/15 12:39:23;;;;;;;2.80;2.20;;;25.60;87.30;;;;;;5010882;28;20214;-78
2023/09/15 12:41:59;;;;;;;3.83;2.10;;;25.50;89.60;;;;;;5013728;28;20210;-78
2023/09/15 12:44:28;;;;;;;3.67;2.53;;;26.00;88.60;;;;;;5043684;28;20217;-77
2023/09/15 12:46:57;;;;;;;3.13;2.30;;;26.00;85.10;;;;;;5012318;28;20229;-77
2023/09/15 12:49:26;;;;;;;3.17;1.95;;;25.30;87.90;;;;;;5024362;28;20199;-77
2023/09/15 12:51:55;;;;;;;1.88;1.67;;;26.30;84.30;;;;;;5006914;28;20203;-77
2023/09/15 12:54:22;;;;;;;3.25;2.50;;;26.00;84.00;;;;;;5026621;28;20195;-77
2023/09/15 12:56:52;;;;;;;5.60;1.90;;;25.90;84.00;;;;;;5020814;28;20215;-77
2023/09/15 12:59:20;;;;;;;3.53;2.10;;;26.40;80.70;;;;;;5008208;28;20215;-77